sensor_id;sensor_type;location;lat;lon;timestamp;temperature;humidity
16200;DHT22;8207;52.494;4.654;2022-12-20T00:01:08;10.20;99.90
16200;DHT22;8207;52.494;4.654;2022-12-20T00:03:35;10.20;99.90
16200;DHT22;8207;52.494;4.654;2022-12-20T00:06:02;10.20;99.90
16200;DHT22;8207;52.494;4.654;2022-12-20T00:08:30;10.10;99.90
16200;DHT22;8207;52.494;4.654;2022-12-20T00:10:59;10.10;99.90
16200;DHT22;8207;52.494;4.654;2022-12-20T00:13:26;10.10;99.90
16200;DHT22;8207;52.494;4.654;2022-12-20T00:16:03;10.10;99.90
16200;DHT22;8207;52.494;4.654;2022-12-20T00:18:32;10.10;99.90
16200;DHT22;8207;52.494;4.654;2022-12-20T00:20:59;10.20;99.90
16200;DHT22;8207;52.494;4.654;2022-12-20T00:23:26;10.20;99.90
16200;DHT22;8207;52.494;4.654;2022-12-20T00:26:00;10.30;99.90
16200;DHT22;8207;52.494;4.654;2022-12-20T00:28:27;10.30;99.90
16200;DHT22;8207;52.494;4.654;2022-12-20T00:30:54;10.30;99.90
16200;DHT22;8207;52.494;4.654;2022-12-20T00:33:21;10.30;99.90
16200;DHT22;8207;52.494;4.654;2022-12-20T00:35:50;10.30;99.90
16200;DHT22;8207;52.494;4.654;2022-12-20T00:38:17;10.30;99.90
16200;DHT22;8207;52.494;4.654;2022-12-20T00:40:44;10.20;99.90
16200;DHT22;8207;52.494;4.654;2022-12-20T00:43:11;10.20;99.90
16200;DHT22;8207;52.494;4.654;2022-12-20T00:45:38;10.30;99.90
16200;DHT22;8207;52.494;4.654;2022-12-20T00:48:05;10.30;99.90
16200;DHT22;8207;52.494;4.654;2022-12-20T00:50:32;10.30;99.90
16200;DHT22;8207;52.494;4.654;2022-12-20T00:53:00;10.20;99.90
16200;DHT22;8207;52.494;4.654;2022-12-20T00:55:27;10.20;99.90
16200;DHT22;8207;52.494;4.654;2022-12-20T00:57:54;10.20;99.90
16200;DHT22;8207;52.494;4.654;2022-12-20T01:00:21;10.10;99.90
16200;DHT22;8207;52.494;4.654;2022-12-20T01:02:48;10.10;99.90
16200;DHT22;8207;52.494;4.654;2022-12-20T01:05:15;10.10;99.90
16200;DHT22;8207;52.494;4.654;2022-12-20T01:07:42;10.10;99.90
16200;DHT22;8207;52.494;4.654;2022-12-20T01:10:11;10.10;99.90
16200;DHT22;8207;52.494;4.654;2022-12-20T01:12:37;10.10;99.90
16200;DHT22;8207;52.494;4.654;2022-12-20T01:15:06;10.10;99.90
16200;DHT22;8207;52.494;4.654;2022-12-20T01:17:33;10.10;99.90
16200;DHT22;8207;52.494;4.654;2022-12-20T01:20:00;10.10;99.90
16200;DHT22;8207;52.494;4.654;2022-12-20T01:22:27;10.10;99.90
16200;DHT22;8207;52.494;4.654;2022-12-20T01:24:54;10.10;99.90
16200;DHT22;8207;52.494;4.654;2022-12-20T01:27:23;10.10;99.90
16200;DHT22;8207;52.494;4.654;2022-12-20T01:29:50;10.10;99.90
16200;DHT22;8207;52.494;4.654;2022-12-20T01:32:17;10.10;99.90
16200;DHT22;8207;52.494;4.654;2022-12-20T01:34:44;10.10;99.90
16200;DHT22;8207;52.494;4.654;2022-12-20T01:37:11;10.10;99.90
16200;DHT22;8207;52.494;4.654;2022-12-20T01:39:38;10.10;99.90
16200;DHT22;8207;52.494;4.654;2022-12-20T01:42:05;10.10;99.90
16200;DHT22;8207;52.494;4.654;2022-12-20T01:45:06;10.00;99.90
16200;DHT22;8207;52.494;4.654;2022-12-20T01:47:36;10.00;99.90
16200;DHT22;8207;52.494;4.654;2022-12-20T01:50:04;10.00;99.90
16200;DHT22;8207;52.494;4.654;2022-12-20T01:52:34;10.00;99.90
16200;DHT22;8207;52.494;4.654;2022-12-20T01:55:08;10.00;99.90
16200;DHT22;8207;52.494;4.654;2022-12-20T01:57:41;10.00;99.90
16200;DHT22;8207;52.494;4.654;2022-12-20T02:00:11;9.90;99.90
16200;DHT22;8207;52.494;4.654;2022-12-20T02:02:39;9.90;99.90
16200;DHT22;8207;52.494;4.654;2022-12-20T02:05:07;9.90;99.90
16200;DHT22;8207;52.494;4.654;2022-12-20T02:07:35;9.90;99.90
16200;DHT22;8207;52.494;4.654;2022-12-20T02:10:03;10.00;99.90
16200;DHT22;8207;52.494;4.654;2022-12-20T02:12:37;9.90;99.90
16200;DHT22;8207;52.494;4.654;2022-12-20T02:15:18;9.90;99.90
16200;DHT22;8207;52.494;4.654;2022-12-20T02:17:56;9.90;99.90
16200;DHT22;8207;52.494;4.654;2022-12-20T02:20:48;10.00;99.90
16200;DHT22;8207;52.494;4.654;2022-12-20T02:23:58;10.00;99.90
16200;DHT22;8207;52.494;4.654;2022-12-20T02:29:24;9.90;99.90
16200;DHT22;8207;52.494;4.654;2022-12-20T02:32:00;9.90;99.90
16200;DHT22;8207;52.494;4.654;2022-12-20T02:34:30;9.90;99.90
16200;DHT22;8207;52.494;4.654;2022-12-20T02:36:58;9.90;99.90
16200;DHT22;8207;52.494;4.654;2022-12-20T02:39:28;9.90;99.90
16200;DHT22;8207;52.494;4.654;2022-12-20T02:41:59;9.90;99.90
16200;DHT22;8207;52.494;4.654;2022-12-20T02:44:29;9.90;99.90
16200;DHT22;8207;52.494;4.654;2022-12-20T02:47:19;9.90;99.90
16200;DHT22;8207;52.494;4.654;2022-12-20T02:49:48;9.90;99.90
16200;DHT22;8207;52.494;4.654;2022-12-20T02:52:20;9.90;99.90
16200;DHT22;8207;52.494;4.654;2022-12-20T02:54:48;9.90;99.90
16200;DHT22;8207;52.494;4.654;2022-12-20T02:57:18;9.80;99.90
16200;DHT22;8207;52.494;4.654;2022-12-20T02:59:52;9.90;99.90
16200;DHT22;8207;52.494;4.654;2022-12-20T03:02:23;9.90;99.90
16200;DHT22;8207;52.494;4.654;2022-12-20T03:04:51;9.90;99.90
16200;DHT22;8207;52.494;4.654;2022-12-20T03:07:20;9.90;99.90
16200;DHT22;8207;52.494;4.654;2022-12-20T03:09:47;10.00;99.90
16200;DHT22;8207;52.494;4.654;2022-12-20T03:12:15;10.00;99.90
16200;DHT22;8207;52.494;4.654;2022-12-20T03:14:42;10.00;99.90
16200;DHT22;8207;52.494;4.654;2022-12-20T03:17:09;10.00;99.90
16200;DHT22;8207;52.494;4.654;2022-12-20T03:19:38;10.10;99.90
16200;DHT22;8207;52.494;4.654;2022-12-20T03:22:05;10.10;99.90
16200;DHT22;8207;52.494;4.654;2022-12-20T03:24:32;10.10;99.90
16200;DHT22;8207;52.494;4.654;2022-12-20T03:26:59;10.10;99.90
16200;DHT22;8207;52.494;4.654;2022-12-20T03:29:26;10.10;99.90
16200;DHT22;8207;52.494;4.654;2022-12-20T03:31:53;10.10;99.90
16200;DHT22;8207;52.494;4.654;2022-12-20T03:34:20;10.20;99.90
16200;DHT22;8207;52.494;4.654;2022-12-20T03:36:48;10.20;99.90
16200;DHT22;8207;52.494;4.654;2022-12-20T03:39:15;10.20;99.90
16200;DHT22;8207;52.494;4.654;2022-12-20T03:41:42;10.20;99.90
16200;DHT22;8207;52.494;4.654;2022-12-20T03:44:09;10.30;99.90
16200;DHT22;8207;52.494;4.654;2022-12-20T03:46:36;10.30;99.90
16200;DHT22;8207;52.494;4.654;2022-12-20T03:49:03;10.30;99.90
16200;DHT22;8207;52.494;4.654;2022-12-20T03:51:30;10.40;99.90
16200;DHT22;8207;52.494;4.654;2022-12-20T03:53:58;10.40;99.90
16200;DHT22;8207;52.494;4.654;2022-12-20T03:56:25;10.40;99.90
16200;DHT22;8207;52.494;4.654;2022-12-20T03:58:52;10.40;99.90
16200;DHT22;8207;52.494;4.654;2022-12-20T04:01:21;10.40;99.90
16200;DHT22;8207;52.494;4.654;2022-12-20T04:03:48;10.40;99.90
16200;DHT22;8207;52.494;4.654;2022-12-20T04:06:15;10.30;99.90
16200;DHT22;8207;52.494;4.654;2022-12-20T04:08:43;10.30;99.90
16200;DHT22;8207;52.494;4.654;2022-12-20T04:11:11;10.30;99.90
16200;DHT22;8207;52.494;4.654;2022-12-20T04:13:44;10.40;99.90
16200;DHT22;8207;52.494;4.654;2022-12-20T04:16:12;10.40;99.90
16200;DHT22;8207;52.494;4.654;2022-12-20T04:18:39;10.30;99.90
16200;DHT22;8207;52.494;4.654;2022-12-20T04:21:07;10.30;99.90
16200;DHT22;8207;52.494;4.654;2022-12-20T04:23:35;10.30;99.90
16200;DHT22;8207;52.494;4.654;2022-12-20T04:26:04;10.30;99.90
16200;DHT22;8207;52.494;4.654;2022-12-20T04:28:33;10.40;99.90
16200;DHT22;8207;52.494;4.654;2022-12-20T04:31:00;10.40;99.90
16200;DHT22;8207;52.494;4.654;2022-12-20T04:33:28;10.40;99.90
16200;DHT22;8207;52.494;4.654;2022-12-20T04:35:55;10.40;99.90
16200;DHT22;8207;52.494;4.654;2022-12-20T04:38:22;10.40;99.90
16200;DHT22;8207;52.494;4.654;2022-12-20T04:40:50;10.40;99.90
16200;DHT22;8207;52.494;4.654;2022-12-20T04:43:17;10.50;99.90
16200;DHT22;8207;52.494;4.654;2022-12-20T04:45:48;10.50;99.90
16200;DHT22;8207;52.494;4.654;2022-12-20T04:48:16;10.50;99.90
16200;DHT22;8207;52.494;4.654;2022-12-20T04:50:46;10.50;99.90
16200;DHT22;8207;52.494;4.654;2022-12-20T04:53:13;10.50;99.90
16200;DHT22;8207;52.494;4.654;2022-12-20T04:56:06;10.50;99.90
16200;DHT22;8207;52.494;4.654;2022-12-20T04:58:33;10.50;99.90
16200;DHT22;8207;52.494;4.654;2022-12-20T05:01:02;10.60;99.90
16200;DHT22;8207;52.494;4.654;2022-12-20T05:03:29;10.70;99.90
16200;DHT22;8207;52.494;4.654;2022-12-20T05:05:56;10.80;99.90
16200;DHT22;8207;52.494;4.654;2022-12-20T05:08:23;10.70;99.90
16200;DHT22;8207;52.494;4.654;2022-12-20T05:10:50;10.70;99.90
16200;DHT22;8207;52.494;4.654;2022-12-20T05:13:17;10.70;99.90
16200;DHT22;8207;52.494;4.654;2022-12-20T05:15:44;10.80;99.90
16200;DHT22;8207;52.494;4.654;2022-12-20T05:18:12;10.80;99.90
16200;DHT22;8207;52.494;4.654;2022-12-20T05:20:39;10.80;99.90
16200;DHT22;8207;52.494;4.654;2022-12-20T05:23:07;10.80;99.90
16200;DHT22;8207;52.494;4.654;2022-12-20T05:25:53;10.80;99.90
16200;DHT22;8207;52.494;4.654;2022-12-20T05:28:37;10.80;99.90
16200;DHT22;8207;52.494;4.654;2022-12-20T05:31:04;10.80;99.90
16200;DHT22;8207;52.494;4.654;2022-12-20T05:33:32;10.80;99.90
16200;DHT22;8207;52.494;4.654;2022-12-20T05:35:59;10.80;99.90
16200;DHT22;8207;52.494;4.654;2022-12-20T05:38:26;10.80;99.90
16200;DHT22;8207;52.494;4.654;2022-12-20T05:40:53;10.80;99.90
16200;DHT22;8207;52.494;4.654;2022-12-20T05:43:20;10.80;99.90
16200;DHT22;8207;52.494;4.654;2022-12-20T05:45:48;10.70;99.90
16200;DHT22;8207;52.494;4.654;2022-12-20T05:48:16;10.70;99.90
16200;DHT22;8207;52.494;4.654;2022-12-20T05:50:45;10.60;99.90
16200;DHT22;8207;52.494;4.654;2022-12-20T05:53:13;10.60;99.90
16200;DHT22;8207;52.494;4.654;2022-12-20T05:55:42;10.60;99.90
16200;DHT22;8207;52.494;4.654;2022-12-20T05:58:09;10.60;99.90
16200;DHT22;8207;52.494;4.654;2022-12-20T06:00:38;10.60;99.90
16200;DHT22;8207;52.494;4.654;2022-12-20T06:03:06;10.60;99.90
16200;DHT22;8207;52.494;4.654;2022-12-20T06:05:34;10.50;99.90
16200;DHT22;8207;52.494;4.654;2022-12-20T06:08:03;10.50;99.90
16200;DHT22;8207;52.494;4.654;2022-12-20T06:10:30;10.50;99.90
16200;DHT22;8207;52.494;4.654;2022-12-20T06:12:57;10.50;99.90
16200;DHT22;8207;52.494;4.654;2022-12-20T06:15:24;10.50;99.90
16200;DHT22;8207;52.494;4.654;2022-12-20T06:17:51;10.50;99.90
16200;DHT22;8207;52.494;4.654;2022-12-20T06:20:18;10.50;99.90
16200;DHT22;8207;52.494;4.654;2022-12-20T06:22:45;10.50;99.90
16200;DHT22;8207;52.494;4.654;2022-12-20T06:25:14;10.50;99.90
16200;DHT22;8207;52.494;4.654;2022-12-20T06:27:42;10.50;99.90
16200;DHT22;8207;52.494;4.654;2022-12-20T06:30:11;10.50;99.90
16200;DHT22;8207;52.494;4.654;2022-12-20T06:32:38;10.50;99.90
16200;DHT22;8207;52.494;4.654;2022-12-20T06:35:06;10.40;99.90
16200;DHT22;8207;52.494;4.654;2022-12-20T06:37:33;10.50;99.90
16200;DHT22;8207;52.494;4.654;2022-12-20T06:40:01;10.60;99.90
16200;DHT22;8207;52.494;4.654;2022-12-20T06:42:29;10.60;99.90
16200;DHT22;8207;52.494;4.654;2022-12-20T06:44:56;10.60;99.90
16200;DHT22;8207;52.494;4.654;2022-12-20T06:47:23;10.70;99.90
16200;DHT22;8207;52.494;4.654;2022-12-20T06:49:50;10.60;99.90
16200;DHT22;8207;52.494;4.654;2022-12-20T06:52:17;10.70;99.90
16200;DHT22;8207;52.494;4.654;2022-12-20T06:54:44;10.70;99.90
16200;DHT22;8207;52.494;4.654;2022-12-20T06:57:11;10.80;99.90
16200;DHT22;8207;52.494;4.654;2022-12-20T06:59:41;10.80;99.90
16200;DHT22;8207;52.494;4.654;2022-12-20T07:02:09;10.80;99.90
16200;DHT22;8207;52.494;4.654;2022-12-20T07:04:36;10.70;99.90
16200;DHT22;8207;52.494;4.654;2022-12-20T07:07:04;10.80;99.90
16200;DHT22;8207;52.494;4.654;2022-12-20T07:09:31;10.80;99.90
16200;DHT22;8207;52.494;4.654;2022-12-20T07:11:58;10.70;99.90
16200;DHT22;8207;52.494;4.654;2022-12-20T07:14:25;10.80;99.90
16200;DHT22;8207;52.494;4.654;2022-12-20T07:16:54;10.80;99.90
16200;DHT22;8207;52.494;4.654;2022-12-20T07:19:21;10.80;99.90
16200;DHT22;8207;52.494;4.654;2022-12-20T07:21:48;10.80;99.90
16200;DHT22;8207;52.494;4.654;2022-12-20T07:24:15;10.80;99.90
16200;DHT22;8207;52.494;4.654;2022-12-20T07:26:43;10.80;99.90
16200;DHT22;8207;52.494;4.654;2022-12-20T07:29:11;10.80;99.90
16200;DHT22;8207;52.494;4.654;2022-12-20T07:31:38;10.80;99.90
16200;DHT22;8207;52.494;4.654;2022-12-20T07:34:06;10.80;99.90
16200;DHT22;8207;52.494;4.654;2022-12-20T07:36:33;10.80;99.90
16200;DHT22;8207;52.494;4.654;2022-12-20T07:39:01;10.80;99.90
16200;DHT22;8207;52.494;4.654;2022-12-20T07:41:28;10.80;99.90
16200;DHT22;8207;52.494;4.654;2022-12-20T07:43:55;10.90;99.90
16200;DHT22;8207;52.494;4.654;2022-12-20T07:46:23;10.80;99.90
16200;DHT22;8207;52.494;4.654;2022-12-20T07:48:50;10.90;99.90
16200;DHT22;8207;52.494;4.654;2022-12-20T07:51:22;10.90;99.90
16200;DHT22;8207;52.494;4.654;2022-12-20T07:53:53;10.90;99.90
16200;DHT22;8207;52.494;4.654;2022-12-20T07:56:22;10.90;99.90
16200;DHT22;8207;52.494;4.654;2022-12-20T07:58:53;10.90;99.90
16200;DHT22;8207;52.494;4.654;2022-12-20T08:01:24;10.90;99.90
16200;DHT22;8207;52.494;4.654;2022-12-20T08:03:56;10.90;99.90
16200;DHT22;8207;52.494;4.654;2022-12-20T08:06:26;10.90;99.90
16200;DHT22;8207;52.494;4.654;2022-12-20T08:08:57;10.90;99.90
16200;DHT22;8207;52.494;4.654;2022-12-20T08:11:26;10.90;99.90
16200;DHT22;8207;52.494;4.654;2022-12-20T08:13:55;10.90;99.90
16200;DHT22;8207;52.494;4.654;2022-12-20T08:16:22;11.00;99.90
16200;DHT22;8207;52.494;4.654;2022-12-20T08:18:49;10.90;99.90
16200;DHT22;8207;52.494;4.654;2022-12-20T08:21:16;10.90;99.90
16200;DHT22;8207;52.494;4.654;2022-12-20T08:23:45;10.90;99.90
16200;DHT22;8207;52.494;4.654;2022-12-20T08:26:12;11.00;99.90
16200;DHT22;8207;52.494;4.654;2022-12-20T08:28:39;10.90;99.90
16200;DHT22;8207;52.494;4.654;2022-12-20T08:31:07;11.00;99.90
16200;DHT22;8207;52.494;4.654;2022-12-20T08:33:36;11.00;99.90
16200;DHT22;8207;52.494;4.654;2022-12-20T08:36:06;11.10;99.90
16200;DHT22;8207;52.494;4.654;2022-12-20T08:38:33;11.00;99.90
16200;DHT22;8207;52.494;4.654;2022-12-20T08:41:06;11.10;99.90
16200;DHT22;8207;52.494;4.654;2022-12-20T08:43:34;11.10;99.90
16200;DHT22;8207;52.494;4.654;2022-12-20T08:46:01;11.10;99.90
16200;DHT22;8207;52.494;4.654;2022-12-20T08:48:28;11.10;99.90
16200;DHT22;8207;52.494;4.654;2022-12-20T08:50:56;11.00;99.90
16200;DHT22;8207;52.494;4.654;2022-12-20T08:53:23;11.00;99.90
16200;DHT22;8207;52.494;4.654;2022-12-20T08:55:50;11.00;99.90
16200;DHT22;8207;52.494;4.654;2022-12-20T08:58:19;10.90;99.90
16200;DHT22;8207;52.494;4.654;2022-12-20T09:00:46;10.90;99.90
16200;DHT22;8207;52.494;4.654;2022-12-20T09:03:13;10.80;99.90
16200;DHT22;8207;52.494;4.654;2022-12-20T09:05:44;10.90;99.90
16200;DHT22;8207;52.494;4.654;2022-12-20T09:08:12;10.80;99.90
16200;DHT22;8207;52.494;4.654;2022-12-20T09:10:42;10.90;99.90
16200;DHT22;8207;52.494;4.654;2022-12-20T09:13:13;10.90;99.90
16200;DHT22;8207;52.494;4.654;2022-12-20T09:15:46;10.90;99.90
16200;DHT22;8207;52.494;4.654;2022-12-20T09:18:16;10.90;99.90
16200;DHT22;8207;52.494;4.654;2022-12-20T09:20:43;10.90;99.90
16200;DHT22;8207;52.494;4.654;2022-12-20T09:23:11;11.00;99.90
16200;DHT22;8207;52.494;4.654;2022-12-20T09:25:38;10.90;99.90
16200;DHT22;8207;52.494;4.654;2022-12-20T09:28:05;10.90;99.90
16200;DHT22;8207;52.494;4.654;2022-12-20T09:30:32;10.90;99.90
16200;DHT22;8207;52.494;4.654;2022-12-20T09:33:00;10.90;99.90
16200;DHT22;8207;52.494;4.654;2022-12-20T09:35:27;10.90;99.90
16200;DHT22;8207;52.494;4.654;2022-12-20T09:37:54;10.90;99.90
16200;DHT22;8207;52.494;4.654;2022-12-20T09:40:24;10.90;99.90
16200;DHT22;8207;52.494;4.654;2022-12-20T09:42:53;11.00;99.90
16200;DHT22;8207;52.494;4.654;2022-12-20T09:45:24;11.00;99.90
16200;DHT22;8207;52.494;4.654;2022-12-20T09:47:52;11.00;99.90
16200;DHT22;8207;52.494;4.654;2022-12-20T09:50:27;11.10;99.90
16200;DHT22;8207;52.494;4.654;2022-12-20T09:53:09;11.10;99.90
16200;DHT22;8207;52.494;4.654;2022-12-20T09:55:44;11.10;99.90
16200;DHT22;8207;52.494;4.654;2022-12-20T09:58:41;11.10;99.90
16200;DHT22;8207;52.494;4.654;2022-12-20T10:01:15;11.20;99.90
16200;DHT22;8207;52.494;4.654;2022-12-20T10:03:43;11.20;99.90
16200;DHT22;8207;52.494;4.654;2022-12-20T10:06:18;11.20;99.90
16200;DHT22;8207;52.494;4.654;2022-12-20T10:08:53;11.20;99.90
16200;DHT22;8207;52.494;4.654;2022-12-20T10:11:41;11.20;99.90
16200;DHT22;8207;52.494;4.654;2022-12-20T10:14:23;11.20;99.90
16200;DHT22;8207;52.494;4.654;2022-12-20T10:16:55;11.20;99.90
16200;DHT22;8207;52.494;4.654;2022-12-20T10:19:34;11.20;99.90
16200;DHT22;8207;52.494;4.654;2022-12-20T10:22:09;11.20;99.90
16200;DHT22;8207;52.494;4.654;2022-12-20T10:24:38;11.20;99.90
16200;DHT22;8207;52.494;4.654;2022-12-20T10:27:12;11.20;99.90
16200;DHT22;8207;52.494;4.654;2022-12-20T10:29:40;11.20;99.90
16200;DHT22;8207;52.494;4.654;2022-12-20T10:32:13;11.20;99.90
16200;DHT22;8207;52.494;4.654;2022-12-20T10:34:45;11.20;99.90
16200;DHT22;8207;52.494;4.654;2022-12-20T10:37:17;11.30;99.90
16200;DHT22;8207;52.494;4.654;2022-12-20T10:39:47;11.30;99.90
16200;DHT22;8207;52.494;4.654;2022-12-20T10:42:28;11.30;99.90
16200;DHT22;8207;52.494;4.654;2022-12-20T10:44:57;11.30;99.90
16200;DHT22;8207;52.494;4.654;2022-12-20T10:47:35;11.30;99.90
16200;DHT22;8207;52.494;4.654;2022-12-20T10:50:09;11.30;99.90
16200;DHT22;8207;52.494;4.654;2022-12-20T10:52:40;11.30;99.90
16200;DHT22;8207;52.494;4.654;2022-12-20T10:55:32;11.30;99.90
16200;DHT22;8207;52.494;4.654;2022-12-20T10:58:03;11.30;99.90
16200;DHT22;8207;52.494;4.654;2022-12-20T11:00:31;11.30;99.90
16200;DHT22;8207;52.494;4.654;2022-12-20T11:03:06;11.30;99.90
16200;DHT22;8207;52.494;4.654;2022-12-20T11:05:36;11.30;99.90
16200;DHT22;8207;52.494;4.654;2022-12-20T11:08:13;11.30;99.90
16200;DHT22;8207;52.494;4.654;2022-12-20T11:10:42;11.40;99.90
16200;DHT22;8207;52.494;4.654;2022-12-20T11:13:21;11.30;99.90
16200;DHT22;8207;52.494;4.654;2022-12-20T11:15:53;11.40;99.90
16200;DHT22;8207;52.494;4.654;2022-12-20T11:18:31;11.50;99.90
16200;DHT22;8207;52.494;4.654;2022-12-20T11:21:18;11.50;99.90
16200;DHT22;8207;52.494;4.654;2022-12-20T11:24:03;11.50;99.90
16200;DHT22;8207;52.494;4.654;2022-12-20T11:26:49;11.60;99.90
16200;DHT22;8207;52.494;4.654;2022-12-20T11:29:44;11.60;99.90
16200;DHT22;8207;52.494;4.654;2022-12-20T11:32:26;11.60;99.90
16200;DHT22;8207;52.494;4.654;2022-12-20T11:35:10;11.70;99.90
16200;DHT22;8207;52.494;4.654;2022-12-20T11:37:48;11.70;99.90
16200;DHT22;8207;52.494;4.654;2022-12-20T11:40:31;11.70;99.90
16200;DHT22;8207;52.494;4.654;2022-12-20T11:43:17;11.80;99.90
16200;DHT22;8207;52.494;4.654;2022-12-20T11:46:05;11.90;99.90
16200;DHT22;8207;52.494;4.654;2022-12-20T11:48:48;11.90;99.90
16200;DHT22;8207;52.494;4.654;2022-12-20T11:51:21;11.90;99.90
16200;DHT22;8207;52.494;4.654;2022-12-20T11:53:53;12.00;99.90
16200;DHT22;8207;52.494;4.654;2022-12-20T11:56:29;12.00;99.90
16200;DHT22;8207;52.494;4.654;2022-12-20T11:59:00;12.10;99.90
16200;DHT22;8207;52.494;4.654;2022-12-20T12:01:32;12.10;99.90
16200;DHT22;8207;52.494;4.654;2022-12-20T12:04:06;12.10;99.90
16200;DHT22;8207;52.494;4.654;2022-12-20T12:06:37;12.10;99.90
16200;DHT22;8207;52.494;4.654;2022-12-20T12:09:13;12.10;99.90
16200;DHT22;8207;52.494;4.654;2022-12-20T12:11:47;12.10;99.90
16200;DHT22;8207;52.494;4.654;2022-12-20T12:14:32;12.10;99.90
16200;DHT22;8207;52.494;4.654;2022-12-20T12:17:07;12.10;99.90
16200;DHT22;8207;52.494;4.654;2022-12-20T12:19:36;12.20;99.90
16200;DHT22;8207;52.494;4.654;2022-12-20T12:22:09;12.20;99.90
16200;DHT22;8207;52.494;4.654;2022-12-20T12:24:43;12.10;99.90
16200;DHT22;8207;52.494;4.654;2022-12-20T12:27:20;12.10;99.90
16200;DHT22;8207;52.494;4.654;2022-12-20T12:29:48;12.20;99.90
16200;DHT22;8207;52.494;4.654;2022-12-20T12:32:20;12.10;99.90
16200;DHT22;8207;52.494;4.654;2022-12-20T12:35:13;12.10;99.90
16200;DHT22;8207;52.494;4.654;2022-12-20T12:37:54;12.10;99.90
16200;DHT22;8207;52.494;4.654;2022-12-20T12:43:49;12.00;99.90
16200;DHT22;8207;52.494;4.654;2022-12-20T12:46:21;12.00;99.90
16200;DHT22;8207;52.494;4.654;2022-12-20T12:48:54;12.00;99.90
16200;DHT22;8207;52.494;4.654;2022-12-20T12:51:26;12.00;99.90
16200;DHT22;8207;52.494;4.654;2022-12-20T12:54:03;12.00;99.90
16200;DHT22;8207;52.494;4.654;2022-12-20T12:56:38;12.00;99.90
16200;DHT22;8207;52.494;4.654;2022-12-20T13:02:33;11.90;99.90
16200;DHT22;8207;52.494;4.654;2022-12-20T13:05:30;11.90;99.90
16200;DHT22;8207;52.494;4.654;2022-12-20T13:07:58;11.90;99.90
16200;DHT22;8207;52.494;4.654;2022-12-20T13:10:55;11.90;99.90
16200;DHT22;8207;52.494;4.654;2022-12-20T13:13:23;11.80;99.90
16200;DHT22;8207;52.494;4.654;2022-12-20T13:16:03;11.80;99.90
16200;DHT22;8207;52.494;4.654;2022-12-20T13:18:33;11.80;99.90
16200;DHT22;8207;52.494;4.654;2022-12-20T13:21:23;11.80;99.90
16200;DHT22;8207;52.494;4.654;2022-12-20T13:27:03;11.80;99.90
16200;DHT22;8207;52.494;4.654;2022-12-20T13:29:51;11.80;99.90
16200;DHT22;8207;52.494;4.654;2022-12-20T13:35:58;11.80;99.90
16200;DHT22;8207;52.494;4.654;2022-12-20T13:38:38;11.70;99.90
16200;DHT22;8207;52.494;4.654;2022-12-20T13:41:16;11.70;99.90
16200;DHT22;8207;52.494;4.654;2022-12-20T13:43:46;11.70;99.90
16200;DHT22;8207;52.494;4.654;2022-12-20T13:46:20;11.70;99.90
16200;DHT22;8207;52.494;4.654;2022-12-20T13:48:51;11.70;99.90
16200;DHT22;8207;52.494;4.654;2022-12-20T13:51:22;11.60;99.90
16200;DHT22;8207;52.494;4.654;2022-12-20T13:53:52;11.60;99.90
16200;DHT22;8207;52.494;4.654;2022-12-20T13:56:32;11.60;99.90
16200;DHT22;8207;52.494;4.654;2022-12-20T13:59:04;11.60;99.90
16200;DHT22;8207;52.494;4.654;2022-12-20T14:01:32;11.60;99.90
16200;DHT22;8207;52.494;4.654;2022-12-20T14:04:03;11.50;99.90
16200;DHT22;8207;52.494;4.654;2022-12-20T14:06:33;11.50;99.90
16200;DHT22;8207;52.494;4.654;2022-12-20T14:09:01;11.50;99.90
16200;DHT22;8207;52.494;4.654;2022-12-20T14:11:30;11.50;99.90
16200;DHT22;8207;52.494;4.654;2022-12-20T14:13:58;11.50;99.90
16200;DHT22;8207;52.494;4.654;2022-12-20T14:16:27;11.50;99.90
16200;DHT22;8207;52.494;4.654;2022-12-20T14:19:01;11.40;99.90
16200;DHT22;8207;52.494;4.654;2022-12-20T14:21:29;11.40;99.90
16200;DHT22;8207;52.494;4.654;2022-12-20T14:23:59;11.50;99.90
16200;DHT22;8207;52.494;4.654;2022-12-20T14:26:28;11.50;99.90
16200;DHT22;8207;52.494;4.654;2022-12-20T14:28:57;11.40;99.90
16200;DHT22;8207;52.494;4.654;2022-12-20T14:31:28;11.40;99.90
16200;DHT22;8207;52.494;4.654;2022-12-20T14:34:05;11.40;99.90
16200;DHT22;8207;52.494;4.654;2022-12-20T14:36:38;11.40;99.90
16200;DHT22;8207;52.494;4.654;2022-12-20T14:42:00;11.30;99.90
16200;DHT22;8207;52.494;4.654;2022-12-20T14:44:29;11.30;99.90
16200;DHT22;8207;52.494;4.654;2022-12-20T14:46:58;11.30;99.90
16200;DHT22;8207;52.494;4.654;2022-12-20T14:49:27;11.30;99.90
16200;DHT22;8207;52.494;4.654;2022-12-20T14:52:06;11.30;99.90
16200;DHT22;8207;52.494;4.654;2022-12-20T14:54:34;11.30;99.90
16200;DHT22;8207;52.494;4.654;2022-12-20T14:57:10;11.30;99.90
16200;DHT22;8207;52.494;4.654;2022-12-20T14:59:39;11.30;99.90
16200;DHT22;8207;52.494;4.654;2022-12-20T15:02:35;11.30;99.90
16200;DHT22;8207;52.494;4.654;2022-12-20T15:05:38;11.30;99.90
16200;DHT22;8207;52.494;4.654;2022-12-20T15:08:12;11.30;99.90
16200;DHT22;8207;52.494;4.654;2022-12-20T15:10:40;11.30;99.90
16200;DHT22;8207;52.494;4.654;2022-12-20T15:13:12;11.30;99.90
16200;DHT22;8207;52.494;4.654;2022-12-20T15:15:40;11.20;99.90
16200;DHT22;8207;52.494;4.654;2022-12-20T15:18:11;11.20;99.90
16200;DHT22;8207;52.494;4.654;2022-12-20T15:20:40;11.20;99.90
16200;DHT22;8207;52.494;4.654;2022-12-20T15:23:19;11.20;99.90
16200;DHT22;8207;52.494;4.654;2022-12-20T15:25:47;11.20;99.90
16200;DHT22;8207;52.494;4.654;2022-12-20T15:28:18;11.10;99.90
16200;DHT22;8207;52.494;4.654;2022-12-20T15:30:46;11.10;99.90
16200;DHT22;8207;52.494;4.654;2022-12-20T15:33:16;11.10;99.90
16200;DHT22;8207;52.494;4.654;2022-12-20T15:35:45;11.00;99.90
16200;DHT22;8207;52.494;4.654;2022-12-20T15:38:17;11.00;99.90
16200;DHT22;8207;52.494;4.654;2022-12-20T15:40:46;11.00;99.90
16200;DHT22;8207;52.494;4.654;2022-12-20T15:43:17;10.90;99.90
16200;DHT22;8207;52.494;4.654;2022-12-20T15:45:47;10.90;99.90
16200;DHT22;8207;52.494;4.654;2022-12-20T15:48:17;10.90;99.90
16200;DHT22;8207;52.494;4.654;2022-12-20T15:50:49;10.80;99.90
16200;DHT22;8207;52.494;4.654;2022-12-20T15:53:19;10.80;99.90
16200;DHT22;8207;52.494;4.654;2022-12-20T15:55:51;10.80;99.90
16200;DHT22;8207;52.494;4.654;2022-12-20T15:58:21;10.80;99.90
16200;DHT22;8207;52.494;4.654;2022-12-20T16:00:48;10.80;99.90
16200;DHT22;8207;52.494;4.654;2022-12-20T16:03:18;10.70;99.90
16200;DHT22;8207;52.494;4.654;2022-12-20T16:05:46;10.70;99.90
16200;DHT22;8207;52.494;4.654;2022-12-20T16:08:13;10.70;99.90
16200;DHT22;8207;52.494;4.654;2022-12-20T16:10:41;10.70;99.90
16200;DHT22;8207;52.494;4.654;2022-12-20T16:13:13;10.70;99.90
16200;DHT22;8207;52.494;4.654;2022-12-20T16:15:42;10.60;99.90
16200;DHT22;8207;52.494;4.654;2022-12-20T16:18:09;10.60;99.90
16200;DHT22;8207;52.494;4.654;2022-12-20T16:20:36;10.60;99.90
16200;DHT22;8207;52.494;4.654;2022-12-20T16:23:07;10.60;99.90
16200;DHT22;8207;52.494;4.654;2022-12-20T16:25:38;10.60;99.90
16200;DHT22;8207;52.494;4.654;2022-12-20T16:28:04;10.60;99.90
16200;DHT22;8207;52.494;4.654;2022-12-20T16:30:32;10.60;99.90